createdAt,value
2023-04-04T00:01:49.528Z,2.60
2023-04-04T00:04:16.382Z,2.53
2023-04-04T00:06:45.749Z,2.20
2023-04-04T00:09:13.027Z,2.07
2023-04-04T00:11:41.799Z,2.63
2023-04-04T00:14:08.854Z,2.27
2023-04-04T00:16:36.353Z,2.53
2023-04-04T00:19:03.496Z,2.30
2023-04-04T00:21:30.636Z,2.53
2023-04-04T00:23:57.799Z,2.40
2023-04-04T00:26:26.366Z,1.83
2023-04-04T00:28:53.375Z,2.17
2023-04-04T00:31:21.576Z,2.30
2023-04-04T00:33:51.205Z,2.53
2023-04-04T00:36:20.834Z,2.50
2023-04-04T00:38:50.422Z,2.77
2023-04-04T00:41:17.468Z,2.47
2023-04-04T00:43:45.230Z,2.80
2023-04-04T00:46:15.079Z,2.23
2023-04-04T00:48:43.131Z,2.50
2023-04-04T00:51:09.978Z,2.73
2023-04-04T00:53:38.235Z,2.47
2023-04-04T00:56:05.662Z,2.20
2023-04-04T00:58:32.490Z,2.17
2023-04-04T01:01:07.923Z,2.63
2023-04-04T01:03:35.411Z,2.50
2023-04-04T01:06:02.862Z,2.40
2023-04-04T01:08:30.403Z,2.63
2023-04-04T01:10:57.900Z,2.57
2023-04-04T01:13:24.955Z,2.40
2023-04-04T01:15:51.879Z,2.90
2023-04-04T01:18:22.406Z,3.20
2023-04-04T01:21:02.558Z,2.40
2023-04-04T01:23:42.796Z,2.60
2023-04-04T01:26:10.091Z,2.50
2023-04-04T01:28:36.874Z,2.53
2023-04-04T01:31:07.403Z,2.80
2023-04-04T01:33:43.347Z,2.50
2023-04-04T01:36:36.009Z,2.40
2023-04-04T01:39:18.352Z,2.63
2023-04-04T01:41:48.550Z,2.93
2023-04-04T01:44:17.637Z,2.77
2023-04-04T01:46:44.598Z,2.80
2023-04-04T01:49:11.532Z,2.70
2023-04-04T01:51:38.977Z,2.50
2023-04-04T01:54:05.813Z,2.70
2023-04-04T01:56:32.986Z,3.17
2023-04-04T01:58:59.690Z,2.70
2023-04-04T02:01:26.493Z,2.80
2023-04-04T02:03:53.717Z,2.83
2023-04-04T02:06:23.445Z,3.30
2023-04-04T02:08:50.292Z,3.20
2023-04-04T02:11:17.554Z,2.93
2023-04-04T02:13:46.413Z,2.70
2023-04-04T02:16:13.671Z,2.50
2023-04-04T02:18:43.274Z,2.60
2023-04-04T02:21:10.105Z,2.90
2023-04-04T02:23:36.974Z,2.43
2023-04-04T02:26:03.732Z,2.80
2023-04-04T02:28:31.424Z,3.30
2023-04-04T02:31:04.913Z,2.87
2023-04-04T02:33:31.921Z,2.83
2023-04-04T02:35:59.514Z,2.60
2023-04-04T02:38:29.467Z,2.80
2023-04-04T02:40:56.255Z,2.87
2023-04-04T02:43:23.067Z,2.50
2023-04-04T02:45:49.784Z,3.20
2023-04-04T02:48:16.455Z,3.10
2023-04-04T02:50:43.485Z,2.47
2023-04-04T02:53:10.649Z,2.67
2023-04-04T02:55:37.322Z,2.70
2023-04-04T02:58:04.062Z,2.73
2023-04-04T03:00:30.798Z,2.60
2023-04-04T03:02:58.094Z,2.63
2023-04-04T03:05:26.897Z,2.77
2023-04-04T03:07:58.336Z,2.63
2023-04-04T03:10:27.369Z,2.90
2023-04-04T03:12:54.046Z,2.70
2023-04-04T03:15:21.548Z,3.07
2023-04-04T03:17:48.730Z,3.33
2023-04-04T03:20:16.234Z,2.33
2023-04-04T03:22:45.887Z,2.73
2023-04-04T03:25:12.784Z,2.67
2023-04-04T03:27:39.904Z,2.93
2023-04-04T03:30:08.838Z,2.53
2023-04-04T03:32:39.436Z,2.90
2023-04-04T03:35:09.441Z,2.50
2023-04-04T03:37:39.764Z,3.40
2023-04-04T03:40:09.976Z,2.60
2023-04-04T03:42:37.340Z,2.97
2023-04-04T03:45:04.387Z,3.03
2023-04-04T03:47:31.147Z,2.90
2023-04-04T03:49:57.915Z,3.07
2023-04-04T03:52:30.391Z,2.93
2023-04-04T03:54:57.076Z,2.97
2023-04-04T03:57:23.794Z,2.70
2023-04-04T03:59:50.481Z,2.83
2023-04-04T04:02:17.409Z,2.97
2023-04-04T04:04:44.253Z,2.73
2023-04-04T04:07:10.920Z,2.80
2023-04-04T04:09:38.142Z,3.10
2023-04-04T04:12:04.882Z,2.67
2023-04-04T04:14:31.590Z,3.20
2023-04-04T04:16:58.315Z,3.87
2023-04-04T04:19:25.157Z,2.70
2023-04-04T04:21:52.001Z,2.93
2023-04-04T04:24:18.758Z,3.10
2023-04-04T04:26:45.548Z,3.03
2023-04-04T04:29:12.448Z,2.87
2023-04-04T04:31:42.356Z,3.33
2023-04-04T04:34:12.166Z,2.97
2023-04-04T04:36:38.990Z,3.10
2023-04-04T04:39:07.937Z,3.27
2023-04-04T04:41:34.720Z,2.73
2023-04-04T04:44:02.161Z,2.90
2023-04-04T04:46:28.948Z,2.67
2023-04-04T04:48:55.672Z,3.13
2023-04-04T04:51:25.093Z,2.87
2023-04-04T04:53:51.985Z,3.07
2023-04-04T04:56:18.928Z,3.70
2023-04-04T04:58:47.571Z,3.10
2023-04-04T05:01:14.657Z,3.23
2023-04-04T05:03:44.556Z,3.33
2023-04-04T05:06:11.479Z,3.37
2023-04-04T05:08:41.639Z,3.03
2023-04-04T05:11:08.483Z,2.87
2023-04-04T05:13:35.230Z,2.80
2023-04-04T05:16:02.000Z,3.20
2023-04-04T05:18:28.811Z,3.07
2023-04-04T05:20:56.410Z,3.37
2023-04-04T05:23:25.814Z,2.90
2023-04-04T05:25:53.462Z,3.20
2023-04-04T05:28:20.943Z,3.27
2023-04-04T05:30:47.793Z,3.23
2023-04-04T05:33:17.450Z,3.30
2023-04-04T05:35:44.362Z,3.50
2023-04-04T05:38:11.179Z,3.43
2023-04-04T05:40:38.242Z,3.37
2023-04-04T05:43:05.303Z,3.03
2023-04-04T05:45:32.058Z,3.43
2023-04-04T05:47:58.849Z,3.63
2023-04-04T05:50:28.460Z,3.03
2023-04-04T05:52:55.998Z,3.90
2023-04-04T05:55:23.154Z,3.20
2023-04-04T05:57:51.192Z,3.47
2023-04-04T06:00:19.466Z,3.60
2023-04-04T06:02:46.463Z,3.63
2023-04-04T06:05:13.523Z,3.47
2023-04-04T06:07:40.391Z,3.23
2023-04-04T06:10:10.377Z,3.13
2023-04-04T06:12:37.084Z,3.27
2023-04-04T06:15:04.267Z,3.30
2023-04-04T06:17:31.145Z,3.40
2023-04-04T06:19:57.954Z,3.37
2023-04-04T06:22:24.722Z,3.83
2023-04-04T06:24:51.492Z,3.37
2023-04-04T06:27:18.310Z,3.37
2023-04-04T06:29:45.118Z,4.13
2023-04-04T06:32:12.580Z,3.50
2023-04-04T06:34:39.300Z,3.73
2023-04-04T06:37:06.120Z,3.93
2023-04-04T06:39:34.350Z,3.57
2023-04-04T06:42:01.409Z,3.97
2023-04-04T06:44:28.146Z,3.90
2023-04-04T06:46:55.191Z,3.60
2023-04-04T06:49:22.133Z,4.00
2023-04-04T06:51:50.948Z,3.90
2023-04-04T06:54:18.181Z,3.83
2023-04-04T06:56:44.917Z,3.43
2023-04-04T06:59:12.660Z,5.15
2023-04-04T07:01:39.428Z,3.67
2023-04-04T07:04:06.138Z,4.50
2023-04-04T07:06:32.850Z,4.27
2023-04-04T07:08:59.622Z,4.13
2023-04-04T07:11:29.013Z,4.77
2023-04-04T07:13:56.290Z,4.00
2023-04-04T07:16:23.226Z,4.50
2023-04-04T07:18:49.997Z,4.47
2023-04-04T07:21:17.536Z,4.43
2023-04-04T07:23:44.378Z,4.57
2023-04-04T07:26:11.781Z,4.13
2023-04-04T07:28:38.481Z,5.33
2023-04-04T07:31:05.423Z,4.63
2023-04-04T07:33:35.146Z,5.00
2023-04-04T07:36:03.253Z,4.73
2023-04-04T07:38:29.935Z,5.07
2023-04-04T07:40:56.920Z,5.87
2023-04-04T07:43:25.959Z,5.17
2023-04-04T07:45:55.148Z,4.90
2023-04-04T07:48:22.985Z,4.90
2023-04-04T07:50:49.943Z,4.50
2023-04-04T07:53:16.737Z,4.87
2023-04-04T07:55:43.456Z,4.67
2023-04-04T07:58:10.852Z,4.50
2023-04-04T08:00:37.838Z,4.50
2023-04-04T08:03:04.937Z,4.50
2023-04-04T08:05:31.801Z,4.10
2023-04-04T08:07:58.594Z,3.93
2023-04-04T08:10:25.542Z,3.80
2023-04-04T08:12:53.216Z,3.50
2023-04-04T08:15:20.020Z,3.83
2023-04-04T08:17:46.868Z,3.63
2023-04-04T08:20:13.834Z,3.57
2023-04-04T08:22:42.121Z,3.77
2023-04-04T08:25:10.870Z,3.50
2023-04-04T08:27:45.003Z,2.90
2023-04-04T08:30:19.009Z,2.60
2023-04-04T08:32:46.180Z,2.30
2023-04-04T08:35:13.160Z,2.37
2023-04-04T08:37:45.314Z,2.60
2023-04-04T08:40:15.905Z,2.50
2023-04-04T08:42:46.250Z,2.57
2023-04-04T08:45:19.733Z,2.57
2023-04-04T08:47:50.456Z,2.20
2023-04-04T08:50:21.533Z,1.90
2023-04-04T08:52:49.202Z,1.70
2023-04-04T08:55:15.991Z,1.67
2023-04-04T08:57:43.504Z,2.07
2023-04-04T09:00:10.946Z,1.87
2023-04-04T09:02:45.966Z,1.80
2023-04-04T09:05:14.153Z,1.90
2023-04-04T09:07:41.107Z,2.10
2023-04-04T09:10:17.372Z,1.87
2023-04-04T09:12:47.491Z,2.20
2023-04-04T09:15:15.206Z,1.80
2023-04-04T09:17:42.503Z,1.87
2023-04-04T09:20:38.552Z,1.70
2023-04-04T09:23:08.211Z,2.00
2023-04-04T09:25:36.407Z,1.53
2023-04-04T09:28:05.840Z,1.40
2023-04-04T09:30:34.220Z,1.63
2023-04-04T09:33:05.025Z,1.80
2023-04-04T09:35:39.560Z,1.93
2023-04-04T09:38:07.420Z,1.70
2023-04-04T09:40:41.148Z,1.60
2023-04-04T09:43:12.373Z,2.10
2023-04-04T09:45:48.450Z,1.80
2023-04-04T09:48:27.579Z,1.70
2023-04-04T09:50:54.723Z,2.00
2023-04-04T09:53:21.677Z,1.90
2023-04-04T09:55:56.916Z,1.83
2023-04-04T09:58:28.857Z,1.50
2023-04-04T10:01:02.996Z,1.73
2023-04-04T10:03:30.823Z,1.73
2023-04-04T10:06:06.924Z,1.80
2023-04-04T10:08:35.169Z,2.13
2023-04-04T10:11:11.984Z,2.10
2023-04-04T10:13:46.842Z,1.93
2023-04-04T10:16:14.297Z,2.20
2023-04-04T10:18:41.523Z,2.33
2023-04-04T10:21:15.598Z,2.20
2023-04-04T10:23:45.544Z,2.20
2023-04-04T10:26:18.263Z,2.30
2023-04-04T10:28:45.523Z,1.80
2023-04-04T10:31:28.580Z,2.17
2023-04-04T10:34:17.560Z,2.30
2023-04-04T10:37:07.174Z,2.23
2023-04-04T10:39:38.039Z,2.27
2023-04-04T10:42:07.258Z,2.40
2023-04-04T10:44:41.577Z,1.93
2023-04-04T10:47:21.814Z,2.03
2023-04-04T10:49:50.196Z,2.50
2023-04-04T10:52:19.859Z,2.10
2023-04-04T10:54:57.412Z,2.00
2023-04-04T10:57:25.269Z,2.10
2023-04-04T11:00:08.701Z,2.30
2023-04-04T11:02:58.481Z,1.73
2023-04-04T11:05:49.070Z,2.30
2023-04-04T11:08:24.442Z,2.10
2023-04-04T11:10:53.266Z,2.13
2023-04-04T11:13:35.206Z,2.07
2023-04-04T11:16:07.626Z,2.37
2023-04-04T11:18:43.995Z,2.20
2023-04-04T11:21:26.469Z,1.90
2023-04-04T11:23:59.182Z,2.30
2023-04-04T11:26:26.354Z,2.20
2023-04-04T11:28:57.178Z,2.20
2023-04-04T11:31:29.806Z,2.57
2023-04-04T11:34:02.798Z,2.07
2023-04-04T11:36:35.819Z,2.27
2023-04-04T11:39:22.935Z,2.27
2023-04-04T11:42:08.909Z,1.90
2023-04-04T11:44:43.237Z,1.90
2023-04-04T11:47:12.179Z,2.40
2023-04-04T11:49:41.685Z,2.00
2023-04-04T11:52:14.028Z,2.53
2023-04-04T11:54:42.781Z,2.53
2023-04-04T11:57:20.382Z,2.30
2023-04-04T11:59:49.511Z,2.60
2023-04-04T12:02:34.207Z,2.17
2023-04-04T12:05:01.981Z,2.20
2023-04-04T12:07:29.418Z,2.10
2023-04-04T12:09:57.743Z,2.57
2023-04-04T12:12:26.310Z,2.87
2023-04-04T12:15:00.184Z,2.13
2023-04-04T12:17:34.773Z,2.37
2023-04-04T12:20:02.201Z,1.93
2023-04-04T12:22:35.068Z,2.17
2023-04-04T12:25:06.342Z,2.40
2023-04-04T12:27:34.217Z,2.77
2023-04-04T12:30:01.455Z,2.40
2023-04-04T12:32:32.096Z,2.77
2023-04-04T12:35:01.284Z,2.90
2023-04-04T12:37:31.224Z,2.43
2023-04-04T12:39:58.464Z,2.67
2023-04-04T12:42:25.913Z,2.70
2023-04-04T12:44:54.281Z,2.60
2023-04-04T12:47:24.299Z,2.60
2023-04-04T12:49:54.854Z,2.50
2023-04-04T12:52:32.153Z,2.10
2023-04-04T12:55:08.572Z,2.43
2023-04-04T12:57:39.045Z,2.33
2023-04-04T13:00:08.341Z,3.00
2023-04-04T13:02:36.591Z,2.50
2023-04-04T13:05:05.450Z,2.57
2023-04-04T13:07:39.150Z,2.70
2023-04-04T13:10:06.664Z,2.73
2023-04-04T13:12:52.308Z,2.90
2023-04-04T13:15:19.648Z,2.50
2023-04-04T13:17:48.958Z,2.30
2023-04-04T13:20:20.978Z,2.70
2023-04-04T13:22:48.153Z,2.50
2023-04-04T13:25:15.118Z,2.70
2023-04-04T13:27:42.095Z,2.43
2023-04-04T13:30:10.158Z,2.77
2023-04-04T13:32:38.339Z,2.53
2023-04-04T13:35:05.803Z,2.87
2023-04-04T13:37:32.554Z,2.73
2023-04-04T13:39:59.546Z,2.53
2023-04-04T13:42:30.383Z,2.77
2023-04-04T13:45:03.563Z,2.70
2023-04-04T13:47:30.354Z,2.70
2023-04-04T13:49:57.173Z,3.07
2023-04-04T13:52:24.057Z,2.73
2023-04-04T13:54:51.012Z,2.70
2023-04-04T13:57:17.753Z,2.77
2023-04-04T13:59:44.531Z,2.83
2023-04-04T14:02:11.321Z,2.27
2023-04-04T14:04:38.691Z,2.80
2023-04-04T14:07:06.187Z,2.90
2023-04-04T14:09:33.074Z,3.23
2023-04-04T14:11:59.864Z,3.40
2023-04-04T14:14:26.595Z,2.80
2023-04-04T14:16:53.415Z,2.70
2023-04-04T14:19:20.299Z,2.80
2023-04-04T14:21:47.965Z,3.30
2023-04-04T14:24:17.801Z,2.73
2023-04-04T14:26:44.619Z,2.53
2023-04-04T14:29:11.390Z,2.83
2023-04-04T14:31:38.147Z,2.53
2023-04-04T14:34:05.290Z,2.77
2023-04-04T14:36:32.166Z,3.03
2023-04-04T14:39:01.959Z,3.33
2023-04-04T14:41:29.037Z,3.00
2023-04-04T14:43:56.016Z,3.07
2023-04-04T14:46:23.429Z,3.30
2023-04-04T14:48:51.322Z,3.00
2023-04-04T14:51:19.723Z,2.90
2023-04-04T14:53:47.393Z,3.07
2023-04-04T14:56:14.539Z,3.03
2023-04-04T14:58:43.402Z,2.83
2023-04-04T15:01:10.239Z,2.83
2023-04-04T15:03:38.690Z,2.70
2023-04-04T15:06:05.980Z,3.23
2023-04-04T15:08:32.921Z,3.27
2023-04-04T15:11:01.704Z,2.73
2023-04-04T15:13:28.455Z,3.03
2023-04-04T15:15:55.376Z,3.13
2023-04-04T15:18:22.205Z,2.83
2023-04-04T15:20:48.958Z,3.10
2023-04-04T15:23:15.803Z,3.20
2023-04-04T15:25:42.578Z,3.03
2023-04-04T15:28:09.499Z,3.10
2023-04-04T15:30:36.369Z,3.30
2023-04-04T15:33:03.220Z,3.10
2023-04-04T15:35:29.977Z,3.07
2023-04-04T15:37:56.788Z,3.80
2023-04-04T15:40:23.557Z,3.60
2023-04-04T15:42:51.322Z,3.77
2023-04-04T15:45:18.333Z,3.63
2023-04-04T15:47:48.320Z,3.30
2023-04-04T15:50:15.200Z,3.63
2023-04-04T15:52:42.130Z,3.43
2023-04-04T15:55:14.621Z,3.10
2023-04-04T15:57:44.419Z,3.73
2023-04-04T16:00:12.766Z,3.23
2023-04-04T16:02:39.700Z,3.43
2023-04-04T16:05:06.997Z,3.40
2023-04-04T16:07:36.234Z,2.70
2023-04-04T16:10:06.161Z,3.13
2023-04-04T16:12:32.928Z,3.27
2023-04-04T16:15:00.266Z,3.63
2023-04-04T16:17:27.044Z,3.63
2023-04-04T16:19:53.911Z,3.80
2023-04-04T16:22:20.759Z,3.50
2023-04-04T16:24:47.528Z,2.87
2023-04-04T16:27:17.204Z,3.20
2023-04-04T16:29:43.929Z,3.60
2023-04-04T16:32:10.861Z,3.10
2023-04-04T16:34:38.856Z,3.40
2023-04-04T16:37:05.844Z,3.70
2023-04-04T16:39:32.677Z,3.30
2023-04-04T16:42:00.493Z,3.20
2023-04-04T16:44:27.337Z,3.47
2023-04-04T16:46:54.089Z,3.23
2023-04-04T16:49:20.978Z,3.80
2023-04-04T16:51:47.828Z,2.70
2023-04-04T16:54:14.652Z,3.77
2023-04-04T16:56:42.110Z,4.33
2023-04-04T16:59:08.949Z,3.80
2023-04-04T17:01:37.780Z,3.17
2023-04-04T17:04:07.396Z,3.73
2023-04-04T17:06:34.148Z,3.30
2023-04-04T17:09:01.033Z,3.80
2023-04-04T17:11:28.279Z,3.53
2023-04-04T17:14:00.765Z,3.57
2023-04-04T17:16:27.919Z,3.30
2023-04-04T17:18:55.147Z,3.20
2023-04-04T17:21:22.718Z,3.60
2023-04-04T17:23:49.460Z,3.70
2023-04-04T17:26:18.572Z,3.40
2023-04-04T17:28:45.798Z,3.47
2023-04-04T17:31:16.469Z,3.60
2023-04-04T17:33:43.559Z,3.83
2023-04-04T17:36:19.423Z,3.10
2023-04-04T17:38:46.756Z,3.37
2023-04-04T17:41:19.732Z,3.20
2023-04-04T17:43:46.479Z,3.13
2023-04-04T17:46:13.453Z,3.93
2023-04-04T17:48:43.620Z,3.60
2023-04-04T17:51:11.554Z,3.20
2023-04-04T17:53:38.316Z,3.80
2023-04-04T17:56:05.390Z,3.43
2023-04-04T17:58:32.577Z,4.07
2023-04-04T18:01:02.572Z,3.47
2023-04-04T18:03:29.560Z,4.27
2023-04-04T18:05:57.042Z,4.33
2023-04-04T18:08:24.307Z,4.00
2023-04-04T18:10:52.309Z,3.70
2023-04-04T18:13:19.286Z,3.63
2023-04-04T18:15:46.311Z,3.70
2023-04-04T18:18:13.262Z,3.87
2023-04-04T18:20:40.191Z,3.33
2023-04-04T18:23:07.008Z,3.80
2023-04-04T18:25:33.831Z,3.33
2023-04-04T18:28:02.095Z,3.60
2023-04-04T18:30:33.131Z,3.70
2023-04-04T18:33:02.718Z,4.10
2023-04-04T18:35:29.434Z,3.70
2023-04-04T18:37:56.381Z,4.20
2023-04-04T18:40:23.096Z,3.60
2023-04-04T18:42:51.560Z,3.90
2023-04-04T18:45:20.896Z,4.00
2023-04-04T18:47:47.983Z,3.97
2023-04-04T18:50:15.031Z,3.97
2023-04-04T18:52:45.685Z,3.93
2023-04-04T18:55:12.565Z,4.33
2023-04-04T18:57:41.970Z,4.17
2023-04-04T19:00:09.846Z,3.90
2023-04-04T19:02:37.465Z,3.97
2023-04-04T19:05:05.030Z,4.17
2023-04-04T19:07:32.782Z,3.73
2023-04-04T19:10:04.011Z,4.13
2023-04-04T19:12:31.236Z,3.90
2023-04-04T19:14:59.357Z,3.60
2023-04-04T19:17:26.117Z,3.70
2023-04-04T19:19:52.853Z,3.80
2023-04-04T19:22:19.782Z,3.63
2023-04-04T19:24:46.496Z,4.07
2023-04-04T19:27:16.675Z,4.67
2023-04-04T19:29:43.404Z,4.40
2023-04-04T19:32:16.997Z,4.50
2023-04-04T19:34:44.764Z,4.40
2023-04-04T19:39:53.698Z,4.07
2023-04-04T19:42:27.625Z,4.40
2023-04-04T19:44:54.406Z,4.47
2023-04-04T19:47:21.244Z,5.00
2023-04-04T19:49:51.923Z,4.67
2023-04-04T19:52:22.743Z,4.57
2023-04-04T19:54:49.589Z,4.77
2023-04-04T19:57:19.242Z,5.20
2023-04-04T20:00:09.214Z,5.37
2023-04-04T20:02:50.009Z,4.77
2023-04-04T20:05:53.670Z,4.80
2023-04-04T20:08:21.030Z,5.00
2023-04-04T20:10:48.379Z,4.60
2023-04-04T20:13:17.390Z,4.50
2023-04-04T20:15:47.518Z,5.00
2023-04-04T20:18:25.221Z,5.03
2023-04-04T20:20:59.471Z,4.93
2023-04-04T20:23:27.542Z,4.50
2023-04-04T20:25:54.893Z,5.20
2023-04-04T20:28:25.942Z,4.73
2023-04-04T20:30:53.890Z,5.27
2023-04-04T20:33:40.322Z,5.13
2023-04-04T20:36:31.697Z,5.13
2023-04-04T20:38:59.234Z,5.07
2023-04-04T20:41:26.447Z,4.70
2023-04-04T20:43:58.379Z,5.50
2023-04-04T20:46:27.304Z,5.17
2023-04-04T20:48:56.721Z,5.13
2023-04-04T20:51:29.317Z,5.07
2023-04-04T20:53:58.959Z,4.70
2023-04-04T20:56:41.209Z,6.20
2023-04-04T20:59:34.819Z,5.83
2023-04-04T21:02:17.219Z,5.57
2023-04-04T21:04:45.773Z,5.63
2023-04-04T21:07:37.652Z,5.63
2023-04-04T21:10:21.871Z,5.17
2023-04-04T21:12:48.784Z,5.53
2023-04-04T21:15:28.696Z,5.33
2023-04-04T21:18:01.310Z,5.93
2023-04-04T21:20:46.555Z,5.40
2023-04-04T21:23:28.878Z,5.80
2023-04-04T21:26:08.169Z,6.37
2023-04-04T21:28:38.340Z,5.90
2023-04-04T21:31:14.061Z,5.40
2023-04-04T21:33:45.482Z,7.00
2023-04-04T21:36:27.937Z,6.30
2023-04-04T21:38:59.730Z,5.70
2023-04-04T21:41:30.646Z,6.30
2023-04-04T21:44:06.251Z,6.33
2023-04-04T21:46:34.890Z,6.60
2023-04-04T21:49:01.879Z,5.90
2023-04-04T21:51:29.456Z,6.17
2023-04-04T21:53:56.298Z,7.07
2023-04-04T21:56:27.372Z,6.13
2023-04-04T21:58:55.674Z,6.63
2023-04-04T22:01:24.872Z,6.90
2023-04-04T22:03:51.608Z,6.33
2023-04-04T22:06:22.382Z,5.90
2023-04-04T22:08:49.176Z,6.73
2023-04-04T22:11:19.553Z,7.10
2023-04-04T22:13:50.664Z,6.13
2023-04-04T22:16:18.881Z,6.43
2023-04-04T22:18:54.552Z,6.37
2023-04-04T22:21:26.007Z,7.40
2023-04-04T22:23:55.662Z,6.17
2023-04-04T22:26:29.061Z,6.63
2023-04-04T22:29:00.356Z,6.43
2023-04-04T22:31:28.581Z,6.40
2023-04-04T22:33:55.998Z,6.67
2023-04-04T22:36:23.837Z,6.60
2023-04-04T22:38:59.175Z,6.53
2023-04-04T22:41:27.950Z,6.27
2023-04-04T22:43:56.161Z,6.30
2023-04-04T22:46:23.142Z,5.77
2023-04-04T22:48:50.084Z,6.23
2023-04-04T22:51:17.174Z,7.10
2023-04-04T22:53:44.367Z,6.47
2023-04-04T22:56:11.622Z,6.70
2023-04-04T22:58:41.100Z,7.30
2023-04-04T23:01:07.840Z,6.57
2023-04-04T23:03:34.682Z,6.93
2023-04-04T23:06:01.727Z,5.90
2023-04-04T23:08:28.605Z,6.73
2023-04-04T23:10:55.835Z,7.00
2023-04-04T23:13:22.882Z,7.03
2023-04-04T23:15:49.706Z,6.40
2023-04-04T23:18:17.712Z,6.80
2023-04-04T23:20:44.731Z,6.73
2023-04-04T23:23:12.007Z,6.77
2023-04-04T23:25:39.170Z,7.03
2023-04-04T23:28:06.049Z,6.70
2023-04-04T23:30:32.888Z,6.13
2023-04-04T23:32:59.616Z,7.60
2023-04-04T23:35:26.448Z,6.83
2023-04-04T23:37:53.182Z,7.13
2023-04-04T23:40:20.010Z,7.73
2023-04-04T23:42:46.687Z,7.27
2023-04-04T23:45:13.539Z,6.97
2023-04-04T23:47:40.794Z,7.07
2023-04-04T23:50:07.993Z,6.90
2023-04-04T23:52:35.385Z,6.83
2023-04-04T23:55:02.127Z,5.80
2023-04-04T23:57:28.946Z,6.67
2023-04-04T23:59:55.831Z,7.60
